<?xml version="1.0" encoding="UTF-8" standalone="no" ?>
<gpx xmlns="http://www.topografix.com/GPX/1/1" creator="CompeGPS" version="1.1" xmlns:xsi="http://www.w3.org/2001/XMLSchema-instance" xsi:schemaLocation="http://www.topografix.com/GPX/1/1 http://www.topografix.com/GPX/1/1/gpx.xsd http://www.garmin.com/xmlschemas/GpxExtensions/v3 http://www.garmin.com/xmlschemas/GpxExtensionsv3.xsd http://www.garmin.com/xmlschemas/TrackPointExtension/v1 http://www.garmin.com/xmlschemas/TrackPointExtensionv1.xsd" xmlns:gpxtpx="http://www.garmin.com/xmlschemas/TrackPointExtension/v1">
  <metadata>
    <link href="http://www.compegps.com">
      <text>CompeGPS TEAM, SL</text>
    </link>
    <time>2014-03-07T14:44:53Z</time>
    <bounds maxlat="43.528069" maxlon="1.563783" minlat="43.517522" minlon="1.544900"/>
  </metadata>
<wpt lat="43.518173" lon="1.559231">
<ele>155</ele>
<name>Escalquens</name>
</wpt>
<wpt lat="43.519838" lon="1.544900">
<ele>155</ele>
<name>Pont de Berjean</name>
</wpt>
<wpt lat="43.527205" lon="1.558902">
<ele>215</ele>
<name>Chemin du Pech</name>
</wpt>
<wpt lat="43.520438" lon="1.562521">
<ele>155</ele>
<name>La Bourdette</name>
</wpt>
<trk>
    <name>Escalquens</name>
    <trkseg>
      <trkpt lat="43.518173" lon="1.559231">
        <ele>168.5</ele>
        <time>2014-03-07T08:24:13Z</time>
        <name>Escalquens</name>
      </trkpt>
      <trkpt lat="43.518171" lon="1.559272">
        <ele>167.7</ele>
        <time>2014-03-07T08:25:35Z</time>
      </trkpt>
      <trkpt lat="43.518150" lon="1.559393">
        <ele>167.8</ele>
        <time>2014-03-07T08:25:47Z</time>
      </trkpt>
      <trkpt lat="43.518079" lon="1.559457">
        <ele>167.8</ele>
        <time>2014-03-07T08:25:59Z</time>
      </trkpt>
      <trkpt lat="43.518054" lon="1.559346">
        <ele>167.7</ele>
        <time>2014-03-07T08:26:10Z</time>
      </trkpt>
      <trkpt lat="43.518029" lon="1.559226">
        <ele>167.9</ele>
        <time>2014-03-07T08:26:19Z</time>
      </trkpt>
      <trkpt lat="43.517997" lon="1.559089">
        <ele>167.9</ele>
        <time>2014-03-07T08:26:32Z</time>
      </trkpt>
      <trkpt lat="43.517919" lon="1.558984">
        <ele>167.9</ele>
        <time>2014-03-07T08:26:44Z</time>
      </trkpt>
      <trkpt lat="43.517850" lon="1.558862">
        <ele>168.3</ele>
        <time>2014-03-07T08:27:08Z</time>
      </trkpt>
      <trkpt lat="43.517771" lon="1.558757">
        <ele>168.4</ele>
        <time>2014-03-07T08:27:20Z</time>
      </trkpt>
      <trkpt lat="43.517706" lon="1.558630">
        <ele>168.5</ele>
        <time>2014-03-07T08:27:29Z</time>
      </trkpt>
      <trkpt lat="43.517624" lon="1.558513">
        <ele>168.8</ele>
        <time>2014-03-07T08:27:39Z</time>
      </trkpt>
      <trkpt lat="43.517556" lon="1.558362">
        <ele>168.9</ele>
        <time>2014-03-07T08:27:48Z</time>
      </trkpt>
      <trkpt lat="43.517522" lon="1.558221">
        <ele>168.9</ele>
        <time>2014-03-07T08:27:57Z</time>
      </trkpt>
      <trkpt lat="43.517542" lon="1.558073">
        <ele>168.8</ele>
        <time>2014-03-07T08:28:06Z</time>
      </trkpt>
      <trkpt lat="43.517585" lon="1.557938">
        <ele>169.0</ele>
        <time>2014-03-07T08:28:14Z</time>
      </trkpt>
      <trkpt lat="43.517641" lon="1.557824">
        <ele>169.1</ele>
        <time>2014-03-07T08:28:22Z</time>
      </trkpt>
      <trkpt lat="43.517697" lon="1.557715">
        <ele>169.1</ele>
        <time>2014-03-07T08:28:29Z</time>
      </trkpt>
      <trkpt lat="43.517753" lon="1.557603">
        <ele>168.8</ele>
        <time>2014-03-07T08:28:36Z</time>
      </trkpt>
      <trkpt lat="43.517809" lon="1.557486">
        <ele>168.4</ele>
        <time>2014-03-07T08:28:44Z</time>
      </trkpt>
      <trkpt lat="43.517859" lon="1.557363">
        <ele>168.1</ele>
        <time>2014-03-07T08:28:52Z</time>
      </trkpt>
      <trkpt lat="43.517910" lon="1.557256">
        <ele>167.9</ele>
        <time>2014-03-07T08:28:59Z</time>
      </trkpt>
      <trkpt lat="43.517964" lon="1.557141">
        <ele>167.9</ele>
        <time>2014-03-07T08:29:06Z</time>
      </trkpt>
      <trkpt lat="43.518011" lon="1.557026">
        <ele>167.6</ele>
        <time>2014-03-07T08:29:12Z</time>
      </trkpt>
      <trkpt lat="43.518054" lon="1.556900">
        <ele>167.3</ele>
        <time>2014-03-07T08:29:19Z</time>
      </trkpt>
      <trkpt lat="43.518090" lon="1.556773">
        <ele>167.2</ele>
        <time>2014-03-07T08:29:26Z</time>
      </trkpt>
      <trkpt lat="43.518167" lon="1.556668">
        <ele>167.3</ele>
        <time>2014-03-07T08:29:34Z</time>
      </trkpt>
      <trkpt lat="43.518198" lon="1.556538">
        <ele>167.2</ele>
        <time>2014-03-07T08:29:41Z</time>
      </trkpt>
      <trkpt lat="43.518247" lon="1.556419">
        <ele>167.0</ele>
        <time>2014-03-07T08:29:48Z</time>
      </trkpt>
      <trkpt lat="43.518298" lon="1.556306">
        <ele>166.9</ele>
        <time>2014-03-07T08:29:55Z</time>
      </trkpt>
      <trkpt lat="43.518352" lon="1.556181">
        <ele>166.7</ele>
        <time>2014-03-07T08:30:04Z</time>
      </trkpt>
      <trkpt lat="43.518413" lon="1.556072">
        <ele>166.7</ele>
        <time>2014-03-07T08:30:12Z</time>
      </trkpt>
      <trkpt lat="43.518448" lon="1.555953">
        <ele>166.8</ele>
        <time>2014-03-07T08:30:20Z</time>
      </trkpt>
      <trkpt lat="43.518489" lon="1.555826">
        <ele>166.6</ele>
        <time>2014-03-07T08:30:28Z</time>
      </trkpt>
      <trkpt lat="43.518536" lon="1.555687">
        <ele>166.3</ele>
        <time>2014-03-07T08:30:37Z</time>
      </trkpt>
      <trkpt lat="43.518556" lon="1.555578">
        <ele>166.2</ele>
        <time>2014-03-07T08:30:45Z</time>
      </trkpt>
      <trkpt lat="43.518597" lon="1.555461">
        <ele>166.1</ele>
        <time>2014-03-07T08:30:53Z</time>
      </trkpt>
      <trkpt lat="43.518670" lon="1.555349">
        <ele>165.9</ele>
        <time>2014-03-07T08:31:00Z</time>
      </trkpt>
      <trkpt lat="43.518729" lon="1.555239">
        <ele>165.7</ele>
        <time>2014-03-07T08:31:07Z</time>
      </trkpt>
      <trkpt lat="43.518775" lon="1.555132">
        <ele>165.6</ele>
        <time>2014-03-07T08:31:14Z</time>
      </trkpt>
      <trkpt lat="43.518815" lon="1.555011">
        <ele>165.6</ele>
        <time>2014-03-07T08:31:21Z</time>
      </trkpt>
      <trkpt lat="43.518865" lon="1.554888">
        <ele>165.8</ele>
        <time>2014-03-07T08:31:28Z</time>
      </trkpt>
      <trkpt lat="43.518904" lon="1.554775">
        <ele>165.9</ele>
        <time>2014-03-07T08:31:34Z</time>
      </trkpt>
      <trkpt lat="43.518924" lon="1.554649">
        <ele>166.0</ele>
        <time>2014-03-07T08:31:41Z</time>
      </trkpt>
      <trkpt lat="43.518937" lon="1.554529">
        <ele>166.1</ele>
        <time>2014-03-07T08:31:48Z</time>
      </trkpt>
      <trkpt lat="43.518949" lon="1.554394">
        <ele>166.4</ele>
        <time>2014-03-07T08:31:55Z</time>
      </trkpt>
      <trkpt lat="43.518938" lon="1.554274">
        <ele>166.6</ele>
        <time>2014-03-07T08:32:02Z</time>
      </trkpt>
      <trkpt lat="43.518913" lon="1.554146">
        <ele>166.8</ele>
        <time>2014-03-07T08:32:09Z</time>
      </trkpt>
      <trkpt lat="43.518902" lon="1.554024">
        <ele>166.9</ele>
        <time>2014-03-07T08:32:16Z</time>
      </trkpt>
      <trkpt lat="43.518889" lon="1.553900">
        <ele>167.2</ele>
        <time>2014-03-07T08:32:23Z</time>
      </trkpt>
      <trkpt lat="43.518881" lon="1.553764">
        <ele>167.5</ele>
        <time>2014-03-07T08:32:30Z</time>
      </trkpt>
      <trkpt lat="43.518879" lon="1.553625">
        <ele>167.7</ele>
        <time>2014-03-07T08:32:37Z</time>
      </trkpt>
      <trkpt lat="43.518869" lon="1.553486">
        <ele>168.0</ele>
        <time>2014-03-07T08:32:44Z</time>
      </trkpt>
      <trkpt lat="43.518848" lon="1.553348">
        <ele>168.1</ele>
        <time>2014-03-07T08:32:51Z</time>
      </trkpt>
      <trkpt lat="43.518829" lon="1.553219">
        <ele>168.2</ele>
        <time>2014-03-07T08:32:57Z</time>
      </trkpt>
      <trkpt lat="43.518816" lon="1.553096">
        <ele>168.6</ele>
        <time>2014-03-07T08:33:05Z</time>
      </trkpt>
      <trkpt lat="43.518786" lon="1.552977">
        <ele>168.5</ele>
        <time>2014-03-07T08:33:19Z</time>
      </trkpt>
      <trkpt lat="43.518765" lon="1.552846">
        <ele>168.5</ele>
        <time>2014-03-07T08:33:27Z</time>
      </trkpt>
      <trkpt lat="43.518735" lon="1.552706">
        <ele>168.7</ele>
        <time>2014-03-07T08:33:35Z</time>
      </trkpt>
      <trkpt lat="43.518698" lon="1.552568">
        <ele>168.8</ele>
        <time>2014-03-07T08:33:43Z</time>
      </trkpt>
      <trkpt lat="43.518662" lon="1.552417">
        <ele>168.7</ele>
        <time>2014-03-07T08:33:50Z</time>
      </trkpt>
      <trkpt lat="43.518624" lon="1.552293">
        <ele>168.7</ele>
        <time>2014-03-07T08:33:56Z</time>
      </trkpt>
      <trkpt lat="43.518585" lon="1.552171">
        <ele>168.7</ele>
        <time>2014-03-07T08:34:03Z</time>
      </trkpt>
      <trkpt lat="43.518550" lon="1.552048">
        <ele>168.7</ele>
        <time>2014-03-07T08:34:10Z</time>
      </trkpt>
      <trkpt lat="43.518517" lon="1.551928">
        <ele>168.3</ele>
        <time>2014-03-07T08:34:17Z</time>
      </trkpt>
      <trkpt lat="43.518490" lon="1.551808">
        <ele>168.1</ele>
        <time>2014-03-07T08:34:24Z</time>
      </trkpt>
      <trkpt lat="43.518452" lon="1.551686">
        <ele>168.3</ele>
        <time>2014-03-07T08:34:31Z</time>
      </trkpt>
      <trkpt lat="43.518434" lon="1.551564">
        <ele>168.1</ele>
        <time>2014-03-07T08:34:37Z</time>
      </trkpt>
      <trkpt lat="43.518407" lon="1.551438">
        <ele>167.9</ele>
        <time>2014-03-07T08:34:44Z</time>
      </trkpt>
      <trkpt lat="43.518370" lon="1.551312">
        <ele>167.6</ele>
        <time>2014-03-07T08:34:51Z</time>
      </trkpt>
      <trkpt lat="43.518325" lon="1.551172">
        <ele>167.4</ele>
        <time>2014-03-07T08:34:59Z</time>
      </trkpt>
      <trkpt lat="43.518272" lon="1.551052">
        <ele>167.1</ele>
        <time>2014-03-07T08:35:07Z</time>
      </trkpt>
      <trkpt lat="43.518234" lon="1.550926">
        <ele>166.8</ele>
        <time>2014-03-07T08:35:15Z</time>
      </trkpt>
      <trkpt lat="43.518214" lon="1.550774">
        <ele>166.6</ele>
        <time>2014-03-07T08:35:23Z</time>
      </trkpt>
      <trkpt lat="43.518194" lon="1.550622">
        <ele>166.3</ele>
        <time>2014-03-07T08:35:31Z</time>
      </trkpt>
      <trkpt lat="43.518165" lon="1.550497">
        <ele>165.9</ele>
        <time>2014-03-07T08:35:38Z</time>
      </trkpt>
      <trkpt lat="43.518144" lon="1.550369">
        <ele>165.6</ele>
        <time>2014-03-07T08:35:46Z</time>
      </trkpt>
      <trkpt lat="43.518125" lon="1.550238">
        <ele>165.5</ele>
        <time>2014-03-07T08:35:53Z</time>
      </trkpt>
      <trkpt lat="43.518113" lon="1.550106">
        <ele>165.3</ele>
        <time>2014-03-07T08:36:00Z</time>
      </trkpt>
      <trkpt lat="43.518099" lon="1.549981">
        <ele>164.8</ele>
        <time>2014-03-07T08:36:07Z</time>
      </trkpt>
      <trkpt lat="43.518087" lon="1.549844">
        <ele>164.3</ele>
        <time>2014-03-07T08:36:14Z</time>
      </trkpt>
      <trkpt lat="43.518074" lon="1.549714">
        <ele>163.9</ele>
        <time>2014-03-07T08:36:21Z</time>
      </trkpt>
      <trkpt lat="43.518067" lon="1.549569">
        <ele>163.5</ele>
        <time>2014-03-07T08:36:29Z</time>
      </trkpt>
      <trkpt lat="43.518060" lon="1.549440">
        <ele>163.4</ele>
        <time>2014-03-07T08:36:36Z</time>
      </trkpt>
      <trkpt lat="43.518043" lon="1.549308">
        <ele>163.3</ele>
        <time>2014-03-07T08:36:44Z</time>
      </trkpt>
      <trkpt lat="43.518034" lon="1.549184">
        <ele>163.0</ele>
        <time>2014-03-07T08:36:51Z</time>
      </trkpt>
      <trkpt lat="43.518024" lon="1.549042">
        <ele>162.9</ele>
        <time>2014-03-07T08:36:59Z</time>
      </trkpt>
      <trkpt lat="43.518015" lon="1.548926">
        <ele>162.5</ele>
        <time>2014-03-07T08:37:06Z</time>
      </trkpt>
      <trkpt lat="43.518000" lon="1.548792">
        <ele>162.3</ele>
        <time>2014-03-07T08:37:14Z</time>
      </trkpt>
      <trkpt lat="43.518004" lon="1.548651">
        <ele>161.9</ele>
        <time>2014-03-07T08:37:21Z</time>
      </trkpt>
      <trkpt lat="43.517987" lon="1.548515">
        <ele>161.7</ele>
        <time>2014-03-07T08:37:29Z</time>
      </trkpt>
      <trkpt lat="43.517968" lon="1.548382">
        <ele>161.3</ele>
        <time>2014-03-07T08:37:37Z</time>
      </trkpt>
      <trkpt lat="43.517955" lon="1.548257">
        <ele>161.1</ele>
        <time>2014-03-07T08:37:44Z</time>
      </trkpt>
      <trkpt lat="43.517958" lon="1.548113">
        <ele>160.7</ele>
        <time>2014-03-07T08:37:52Z</time>
      </trkpt>
      <trkpt lat="43.517962" lon="1.547975">
        <ele>160.1</ele>
        <time>2014-03-07T08:37:59Z</time>
      </trkpt>
      <trkpt lat="43.517964" lon="1.547842">
        <ele>159.8</ele>
        <time>2014-03-07T08:38:06Z</time>
      </trkpt>
      <trkpt lat="43.518014" lon="1.547755">
        <ele>159.4</ele>
        <time>2014-03-07T08:38:13Z</time>
      </trkpt>
      <trkpt lat="43.518040" lon="1.547636">
        <ele>159.2</ele>
        <time>2014-03-07T08:38:19Z</time>
      </trkpt>
      <trkpt lat="43.518028" lon="1.547499">
        <ele>158.8</ele>
        <time>2014-03-07T08:38:26Z</time>
      </trkpt>
      <trkpt lat="43.518024" lon="1.547379">
        <ele>158.4</ele>
        <time>2014-03-07T08:38:32Z</time>
      </trkpt>
      <trkpt lat="43.518021" lon="1.547253">
        <ele>157.7</ele>
        <time>2014-03-07T08:38:39Z</time>
      </trkpt>
      <trkpt lat="43.518021" lon="1.547120">
        <ele>157.0</ele>
        <time>2014-03-07T08:38:46Z</time>
      </trkpt>
      <trkpt lat="43.518008" lon="1.546980">
        <ele>156.6</ele>
        <time>2014-03-07T08:38:54Z</time>
      </trkpt>
      <trkpt lat="43.518002" lon="1.546849">
        <ele>156.0</ele>
        <time>2014-03-07T08:39:01Z</time>
      </trkpt>
      <trkpt lat="43.518043" lon="1.546722">
        <ele>155.6</ele>
        <time>2014-03-07T08:39:10Z</time>
      </trkpt>
      <trkpt lat="43.518118" lon="1.546611">
        <ele>155.5</ele>
        <time>2014-03-07T08:39:23Z</time>
      </trkpt>
      <trkpt lat="43.518215" lon="1.546493">
        <ele>155.1</ele>
        <time>2014-03-07T08:39:31Z</time>
      </trkpt>
      <trkpt lat="43.518345" lon="1.546407">
        <ele>154.7</ele>
        <time>2014-03-07T08:39:39Z</time>
      </trkpt>
      <trkpt lat="43.518401" lon="1.546306">
        <ele>154.4</ele>
        <time>2014-03-07T08:39:47Z</time>
      </trkpt>
      <trkpt lat="43.518456" lon="1.546213">
        <ele>154.3</ele>
        <time>2014-03-07T08:39:54Z</time>
      </trkpt>
      <trkpt lat="43.518509" lon="1.546109">
        <ele>154.4</ele>
        <time>2014-03-07T08:40:02Z</time>
      </trkpt>
      <trkpt lat="43.518539" lon="1.545979">
        <ele>154.0</ele>
        <time>2014-03-07T08:40:10Z</time>
      </trkpt>
      <trkpt lat="43.518613" lon="1.545916">
        <ele>153.9</ele>
        <time>2014-03-07T08:40:16Z</time>
      </trkpt>
      <trkpt lat="43.518689" lon="1.545854">
        <ele>153.9</ele>
        <time>2014-03-07T08:40:22Z</time>
      </trkpt>
      <trkpt lat="43.518778" lon="1.545794">
        <ele>153.9</ele>
        <time>2014-03-07T08:40:29Z</time>
      </trkpt>
      <trkpt lat="43.518848" lon="1.545724">
        <ele>153.7</ele>
        <time>2014-03-07T08:40:36Z</time>
      </trkpt>
      <trkpt lat="43.518935" lon="1.545651">
        <ele>153.6</ele>
        <time>2014-03-07T08:40:43Z</time>
      </trkpt>
      <trkpt lat="43.519027" lon="1.545590">
        <ele>153.6</ele>
        <time>2014-03-07T08:40:50Z</time>
      </trkpt>
      <trkpt lat="43.519113" lon="1.545513">
        <ele>153.3</ele>
        <time>2014-03-07T08:40:57Z</time>
      </trkpt>
      <trkpt lat="43.519186" lon="1.545424">
        <ele>153.5</ele>
        <time>2014-03-07T08:41:04Z</time>
      </trkpt>
      <trkpt lat="43.519266" lon="1.545329">
        <ele>153.7</ele>
        <time>2014-03-07T08:41:11Z</time>
      </trkpt>
      <trkpt lat="43.519350" lon="1.545252">
        <ele>153.8</ele>
        <time>2014-03-07T08:41:18Z</time>
      </trkpt>
      <trkpt lat="43.519435" lon="1.545181">
        <ele>153.7</ele>
        <time>2014-03-07T08:41:24Z</time>
      </trkpt>
      <trkpt lat="43.519522" lon="1.545123">
        <ele>153.6</ele>
        <time>2014-03-07T08:41:31Z</time>
      </trkpt>
      <trkpt lat="43.519626" lon="1.545042">
        <ele>153.8</ele>
        <time>2014-03-07T08:41:40Z</time>
      </trkpt>
      <trkpt lat="43.519737" lon="1.544950">
        <ele>154.1</ele>
        <time>2014-03-07T08:41:49Z</time>
      </trkpt>
      <trkpt lat="43.519838" lon="1.544900">
        <ele>153.4</ele>
        <time>2014-03-07T08:42:01Z</time>
        <name>Pont de Berjean</name>
      </trkpt>
      <trkpt lat="43.519883" lon="1.545031">
        <ele>152.9</ele>
        <time>2014-03-07T08:42:23Z</time>
      </trkpt>
      <trkpt lat="43.519933" lon="1.545161">
        <ele>152.7</ele>
        <time>2014-03-07T08:42:33Z</time>
      </trkpt>
      <trkpt lat="43.519980" lon="1.545291">
        <ele>153.0</ele>
        <time>2014-03-07T08:42:42Z</time>
      </trkpt>
      <trkpt lat="43.520036" lon="1.545409">
        <ele>153.1</ele>
        <time>2014-03-07T08:42:50Z</time>
      </trkpt>
      <trkpt lat="43.520087" lon="1.545538">
        <ele>153.2</ele>
        <time>2014-03-07T08:42:59Z</time>
      </trkpt>
      <trkpt lat="43.520152" lon="1.545661">
        <ele>153.4</ele>
        <time>2014-03-07T08:43:07Z</time>
      </trkpt>
      <trkpt lat="43.520188" lon="1.545791">
        <ele>153.6</ele>
        <time>2014-03-07T08:43:15Z</time>
      </trkpt>
      <trkpt lat="43.520234" lon="1.545916">
        <ele>153.8</ele>
        <time>2014-03-07T08:43:22Z</time>
      </trkpt>
      <trkpt lat="43.520292" lon="1.546038">
        <ele>154.2</ele>
        <time>2014-03-07T08:43:30Z</time>
      </trkpt>
      <trkpt lat="43.520341" lon="1.546150">
        <ele>154.4</ele>
        <time>2014-03-07T08:43:37Z</time>
      </trkpt>
      <trkpt lat="43.520373" lon="1.546286">
        <ele>154.6</ele>
        <time>2014-03-07T08:43:44Z</time>
      </trkpt>
      <trkpt lat="43.520413" lon="1.546410">
        <ele>155.0</ele>
        <time>2014-03-07T08:43:51Z</time>
      </trkpt>
      <trkpt lat="43.520451" lon="1.546536">
        <ele>155.4</ele>
        <time>2014-03-07T08:43:58Z</time>
      </trkpt>
      <trkpt lat="43.520495" lon="1.546662">
        <ele>155.7</ele>
        <time>2014-03-07T08:44:05Z</time>
      </trkpt>
      <trkpt lat="43.520537" lon="1.546790">
        <ele>156.3</ele>
        <time>2014-03-07T08:44:12Z</time>
      </trkpt>
      <trkpt lat="43.520585" lon="1.546912">
        <ele>157.0</ele>
        <time>2014-03-07T08:44:19Z</time>
      </trkpt>
      <trkpt lat="43.520612" lon="1.547033">
        <ele>157.9</ele>
        <time>2014-03-07T08:44:26Z</time>
      </trkpt>
      <trkpt lat="43.520657" lon="1.547151">
        <ele>158.9</ele>
        <time>2014-03-07T08:44:33Z</time>
      </trkpt>
      <trkpt lat="43.520698" lon="1.547271">
        <ele>159.8</ele>
        <time>2014-03-07T08:44:40Z</time>
      </trkpt>
      <trkpt lat="43.520741" lon="1.547380">
        <ele>160.7</ele>
        <time>2014-03-07T08:44:47Z</time>
      </trkpt>
      <trkpt lat="43.520785" lon="1.547484">
        <ele>161.7</ele>
        <time>2014-03-07T08:44:55Z</time>
      </trkpt>
      <trkpt lat="43.520812" lon="1.547616">
        <ele>162.4</ele>
        <time>2014-03-07T08:45:03Z</time>
      </trkpt>
      <trkpt lat="43.520856" lon="1.547743">
        <ele>163.0</ele>
        <time>2014-03-07T08:45:11Z</time>
      </trkpt>
      <trkpt lat="43.520902" lon="1.547861">
        <ele>163.2</ele>
        <time>2014-03-07T08:45:19Z</time>
      </trkpt>
      <trkpt lat="43.520949" lon="1.547989">
        <ele>163.7</ele>
        <time>2014-03-07T08:45:27Z</time>
      </trkpt>
      <trkpt lat="43.520989" lon="1.548112">
        <ele>164.2</ele>
        <time>2014-03-07T08:45:35Z</time>
      </trkpt>
      <trkpt lat="43.521043" lon="1.548216">
        <ele>164.9</ele>
        <time>2014-03-07T08:45:43Z</time>
      </trkpt>
      <trkpt lat="43.521122" lon="1.548285">
        <ele>165.7</ele>
        <time>2014-03-07T08:45:51Z</time>
      </trkpt>
      <trkpt lat="43.521218" lon="1.548335">
        <ele>166.4</ele>
        <time>2014-03-07T08:45:59Z</time>
      </trkpt>
      <trkpt lat="43.521316" lon="1.548334">
        <ele>167.1</ele>
        <time>2014-03-07T08:46:07Z</time>
      </trkpt>
      <trkpt lat="43.521416" lon="1.548322">
        <ele>167.7</ele>
        <time>2014-03-07T08:46:15Z</time>
      </trkpt>
      <trkpt lat="43.521510" lon="1.548320">
        <ele>168.5</ele>
        <time>2014-03-07T08:46:24Z</time>
      </trkpt>
      <trkpt lat="43.521619" lon="1.548301">
        <ele>169.5</ele>
        <time>2014-03-07T08:46:33Z</time>
      </trkpt>
      <trkpt lat="43.521713" lon="1.548288">
        <ele>170.3</ele>
        <time>2014-03-07T08:46:41Z</time>
      </trkpt>
      <trkpt lat="43.521805" lon="1.548263">
        <ele>170.7</ele>
        <time>2014-03-07T08:46:50Z</time>
      </trkpt>
      <trkpt lat="43.521897" lon="1.548233">
        <ele>170.8</ele>
        <time>2014-03-07T08:46:59Z</time>
      </trkpt>
      <trkpt lat="43.521998" lon="1.548210">
        <ele>170.9</ele>
        <time>2014-03-07T08:47:08Z</time>
      </trkpt>
      <trkpt lat="43.522098" lon="1.548194">
        <ele>170.9</ele>
        <time>2014-03-07T08:47:18Z</time>
      </trkpt>
      <trkpt lat="43.522188" lon="1.548164">
        <ele>171.1</ele>
        <time>2014-03-07T08:47:45Z</time>
      </trkpt>
      <trkpt lat="43.522291" lon="1.548142">
        <ele>171.4</ele>
        <time>2014-03-07T08:47:54Z</time>
      </trkpt>
      <trkpt lat="43.522392" lon="1.548110">
        <ele>171.8</ele>
        <time>2014-03-07T08:48:03Z</time>
      </trkpt>
      <trkpt lat="43.522491" lon="1.548091">
        <ele>172.1</ele>
        <time>2014-03-07T08:48:12Z</time>
      </trkpt>
      <trkpt lat="43.522596" lon="1.548066">
        <ele>172.7</ele>
        <time>2014-03-07T08:48:22Z</time>
      </trkpt>
      <trkpt lat="43.522690" lon="1.548042">
        <ele>173.2</ele>
        <time>2014-03-07T08:48:31Z</time>
      </trkpt>
      <trkpt lat="43.522790" lon="1.548010">
        <ele>173.6</ele>
        <time>2014-03-07T08:48:40Z</time>
      </trkpt>
      <trkpt lat="43.522879" lon="1.548000">
        <ele>174.3</ele>
        <time>2014-03-07T08:48:48Z</time>
      </trkpt>
      <trkpt lat="43.522973" lon="1.547969">
        <ele>174.9</ele>
        <time>2014-03-07T08:48:57Z</time>
      </trkpt>
      <trkpt lat="43.523080" lon="1.547964">
        <ele>175.8</ele>
        <time>2014-03-07T08:49:05Z</time>
      </trkpt>
      <trkpt lat="43.523186" lon="1.547921">
        <ele>177.0</ele>
        <time>2014-03-07T08:49:14Z</time>
      </trkpt>
      <trkpt lat="43.523284" lon="1.547881">
        <ele>178.1</ele>
        <time>2014-03-07T08:49:22Z</time>
      </trkpt>
      <trkpt lat="43.523380" lon="1.547873">
        <ele>178.9</ele>
        <time>2014-03-07T08:49:30Z</time>
      </trkpt>
      <trkpt lat="43.523482" lon="1.547866">
        <ele>180.0</ele>
        <time>2014-03-07T08:49:39Z</time>
      </trkpt>
      <trkpt lat="43.523571" lon="1.547836">
        <ele>180.8</ele>
        <time>2014-03-07T08:49:47Z</time>
      </trkpt>
      <trkpt lat="43.523674" lon="1.547793">
        <ele>181.7</ele>
        <time>2014-03-07T08:49:56Z</time>
      </trkpt>
      <trkpt lat="43.523788" lon="1.547752">
        <ele>182.5</ele>
        <time>2014-03-07T08:50:05Z</time>
      </trkpt>
      <trkpt lat="43.523874" lon="1.547680">
        <ele>183.4</ele>
        <time>2014-03-07T08:50:14Z</time>
      </trkpt>
      <trkpt lat="43.523939" lon="1.547595">
        <ele>184.3</ele>
        <time>2014-03-07T08:50:22Z</time>
      </trkpt>
      <trkpt lat="43.524013" lon="1.547491">
        <ele>184.7</ele>
        <time>2014-03-07T08:50:32Z</time>
      </trkpt>
      <trkpt lat="43.524093" lon="1.547372">
        <ele>185.6</ele>
        <time>2014-03-07T08:50:42Z</time>
      </trkpt>
      <trkpt lat="43.524157" lon="1.547244">
        <ele>186.4</ele>
        <time>2014-03-07T08:50:52Z</time>
      </trkpt>
      <trkpt lat="43.524211" lon="1.547117">
        <ele>187.2</ele>
        <time>2014-03-07T08:51:02Z</time>
      </trkpt>
      <trkpt lat="43.524255" lon="1.546989">
        <ele>188.2</ele>
        <time>2014-03-07T08:51:14Z</time>
      </trkpt>
      <trkpt lat="43.524308" lon="1.546841">
        <ele>188.6</ele>
        <time>2014-03-07T08:51:26Z</time>
      </trkpt>
      <trkpt lat="43.524361" lon="1.546720">
        <ele>188.7</ele>
        <time>2014-03-07T08:51:40Z</time>
      </trkpt>
      <trkpt lat="43.524358" lon="1.546656">
        <ele>188.3</ele>
        <time>2014-03-07T08:53:09Z</time>
      </trkpt>
      <trkpt lat="43.524423" lon="1.546647">
        <ele>188.4</ele>
        <time>2014-03-07T08:54:27Z</time>
      </trkpt>
      <trkpt lat="43.524506" lon="1.546624">
        <ele>188.9</ele>
        <time>2014-03-07T08:54:39Z</time>
      </trkpt>
      <trkpt lat="43.524620" lon="1.546621">
        <ele>189.1</ele>
        <time>2014-03-07T08:54:52Z</time>
      </trkpt>
      <trkpt lat="43.524731" lon="1.546629">
        <ele>189.8</ele>
        <time>2014-03-07T08:55:03Z</time>
      </trkpt>
      <trkpt lat="43.524827" lon="1.546666">
        <ele>190.0</ele>
        <time>2014-03-07T08:55:12Z</time>
      </trkpt>
      <trkpt lat="43.524926" lon="1.546674">
        <ele>190.8</ele>
        <time>2014-03-07T08:55:22Z</time>
      </trkpt>
      <trkpt lat="43.525017" lon="1.546731">
        <ele>191.9</ele>
        <time>2014-03-07T08:55:34Z</time>
      </trkpt>
      <trkpt lat="43.525104" lon="1.546775">
        <ele>193.5</ele>
        <time>2014-03-07T08:55:46Z</time>
      </trkpt>
      <trkpt lat="43.525199" lon="1.546823">
        <ele>194.8</ele>
        <time>2014-03-07T08:55:57Z</time>
      </trkpt>
      <trkpt lat="43.525297" lon="1.546868">
        <ele>196.0</ele>
        <time>2014-03-07T08:56:07Z</time>
      </trkpt>
      <trkpt lat="43.525400" lon="1.546863">
        <ele>197.6</ele>
        <time>2014-03-07T08:56:18Z</time>
      </trkpt>
      <trkpt lat="43.525503" lon="1.546826">
        <ele>199.0</ele>
        <time>2014-03-07T08:56:28Z</time>
      </trkpt>
      <trkpt lat="43.525579" lon="1.546719">
        <ele>200.4</ele>
        <time>2014-03-07T08:56:39Z</time>
      </trkpt>
      <trkpt lat="43.525670" lon="1.546632">
        <ele>201.7</ele>
        <time>2014-03-07T08:56:50Z</time>
      </trkpt>
      <trkpt lat="43.525794" lon="1.546563">
        <ele>202.5</ele>
        <time>2014-03-07T08:57:00Z</time>
      </trkpt>
      <trkpt lat="43.525872" lon="1.546474">
        <ele>202.8</ele>
        <time>2014-03-07T08:57:10Z</time>
      </trkpt>
      <trkpt lat="43.525950" lon="1.546390">
        <ele>203.2</ele>
        <time>2014-03-07T08:57:21Z</time>
      </trkpt>
      <trkpt lat="43.526039" lon="1.546298">
        <ele>203.6</ele>
        <time>2014-03-07T08:57:30Z</time>
      </trkpt>
      <trkpt lat="43.526111" lon="1.546208">
        <ele>203.9</ele>
        <time>2014-03-07T08:57:40Z</time>
      </trkpt>
      <trkpt lat="43.526178" lon="1.546122">
        <ele>203.8</ele>
        <time>2014-03-07T08:57:49Z</time>
      </trkpt>
      <trkpt lat="43.526253" lon="1.546047">
        <ele>203.6</ele>
        <time>2014-03-07T08:57:57Z</time>
      </trkpt>
      <trkpt lat="43.526320" lon="1.545964">
        <ele>203.1</ele>
        <time>2014-03-07T08:58:06Z</time>
      </trkpt>
      <trkpt lat="43.526399" lon="1.545883">
        <ele>202.5</ele>
        <time>2014-03-07T08:58:16Z</time>
      </trkpt>
      <trkpt lat="43.526486" lon="1.545807">
        <ele>202.1</ele>
        <time>2014-03-07T08:58:26Z</time>
      </trkpt>
      <trkpt lat="43.526576" lon="1.545742">
        <ele>202.0</ele>
        <time>2014-03-07T08:58:36Z</time>
      </trkpt>
      <trkpt lat="43.526648" lon="1.545698">
        <ele>202.1</ele>
        <time>2014-03-07T08:59:41Z</time>
      </trkpt>
      <trkpt lat="43.526740" lon="1.545744">
        <ele>202.2</ele>
        <time>2014-03-07T08:59:52Z</time>
      </trkpt>
      <trkpt lat="43.526815" lon="1.545809">
        <ele>202.6</ele>
        <time>2014-03-07T09:00:03Z</time>
      </trkpt>
      <trkpt lat="43.526892" lon="1.545887">
        <ele>202.9</ele>
        <time>2014-03-07T09:00:12Z</time>
      </trkpt>
      <trkpt lat="43.526957" lon="1.545977">
        <ele>202.7</ele>
        <time>2014-03-07T09:00:21Z</time>
      </trkpt>
      <trkpt lat="43.527023" lon="1.546073">
        <ele>203.0</ele>
        <time>2014-03-07T09:00:30Z</time>
      </trkpt>
      <trkpt lat="43.527094" lon="1.546161">
        <ele>203.4</ele>
        <time>2014-03-07T09:00:39Z</time>
      </trkpt>
      <trkpt lat="43.527166" lon="1.546253">
        <ele>203.6</ele>
        <time>2014-03-07T09:00:48Z</time>
      </trkpt>
      <trkpt lat="43.527239" lon="1.546348">
        <ele>204.0</ele>
        <time>2014-03-07T09:00:57Z</time>
      </trkpt>
      <trkpt lat="43.527314" lon="1.546440">
        <ele>204.3</ele>
        <time>2014-03-07T09:01:06Z</time>
      </trkpt>
      <trkpt lat="43.527384" lon="1.546527">
        <ele>204.7</ele>
        <time>2014-03-07T09:01:14Z</time>
      </trkpt>
      <trkpt lat="43.527462" lon="1.546620">
        <ele>205.4</ele>
        <time>2014-03-07T09:01:23Z</time>
      </trkpt>
      <trkpt lat="43.527539" lon="1.546693">
        <ele>206.1</ele>
        <time>2014-03-07T09:01:31Z</time>
      </trkpt>
      <trkpt lat="43.527610" lon="1.546783">
        <ele>206.9</ele>
        <time>2014-03-07T09:01:40Z</time>
      </trkpt>
      <trkpt lat="43.527691" lon="1.546855">
        <ele>207.9</ele>
        <time>2014-03-07T09:01:49Z</time>
      </trkpt>
      <trkpt lat="43.527782" lon="1.546946">
        <ele>208.7</ele>
        <time>2014-03-07T09:01:59Z</time>
      </trkpt>
      <trkpt lat="43.527869" lon="1.547047">
        <ele>209.1</ele>
        <time>2014-03-07T09:02:09Z</time>
      </trkpt>
      <trkpt lat="43.527946" lon="1.547140">
        <ele>209.2</ele>
        <time>2014-03-07T09:02:19Z</time>
      </trkpt>
      <trkpt lat="43.528026" lon="1.547228">
        <ele>208.8</ele>
        <time>2014-03-07T09:02:29Z</time>
      </trkpt>
      <trkpt lat="43.528069" lon="1.547347">
        <ele>208.3</ele>
        <time>2014-03-07T09:02:39Z</time>
      </trkpt>
      <trkpt lat="43.528056" lon="1.547489">
        <ele>208.2</ele>
        <time>2014-03-07T09:02:49Z</time>
      </trkpt>
      <trkpt lat="43.528007" lon="1.547604">
        <ele>208.5</ele>
        <time>2014-03-07T09:03:01Z</time>
      </trkpt>
      <trkpt lat="43.527947" lon="1.547707">
        <ele>208.7</ele>
        <time>2014-03-07T09:03:10Z</time>
      </trkpt>
      <trkpt lat="43.527896" lon="1.547818">
        <ele>208.9</ele>
        <time>2014-03-07T09:03:19Z</time>
      </trkpt>
      <trkpt lat="43.527838" lon="1.547939">
        <ele>209.4</ele>
        <time>2014-03-07T09:03:29Z</time>
      </trkpt>
      <trkpt lat="43.527783" lon="1.548068">
        <ele>209.9</ele>
        <time>2014-03-07T09:03:39Z</time>
      </trkpt>
      <trkpt lat="43.527725" lon="1.548179">
        <ele>210.6</ele>
        <time>2014-03-07T09:03:48Z</time>
      </trkpt>
      <trkpt lat="43.527669" lon="1.548291">
        <ele>211.0</ele>
        <time>2014-03-07T09:03:57Z</time>
      </trkpt>
      <trkpt lat="43.527619" lon="1.548415">
        <ele>211.6</ele>
        <time>2014-03-07T09:04:06Z</time>
      </trkpt>
      <trkpt lat="43.527568" lon="1.548539">
        <ele>212.0</ele>
        <time>2014-03-07T09:04:15Z</time>
      </trkpt>
      <trkpt lat="43.527506" lon="1.548637">
        <ele>212.5</ele>
        <time>2014-03-07T09:04:25Z</time>
      </trkpt>
      <trkpt lat="43.527455" lon="1.548749">
        <ele>213.1</ele>
        <time>2014-03-07T09:04:35Z</time>
      </trkpt>
      <trkpt lat="43.527399" lon="1.548867">
        <ele>213.4</ele>
        <time>2014-03-07T09:04:44Z</time>
      </trkpt>
      <trkpt lat="43.527337" lon="1.548967">
        <ele>214.1</ele>
        <time>2014-03-07T09:04:53Z</time>
      </trkpt>
      <trkpt lat="43.527267" lon="1.549072">
        <ele>214.1</ele>
        <time>2014-03-07T09:05:02Z</time>
      </trkpt>
      <trkpt lat="43.527203" lon="1.549192">
        <ele>214.4</ele>
        <time>2014-03-07T09:05:11Z</time>
      </trkpt>
      <trkpt lat="43.527147" lon="1.549300">
        <ele>214.6</ele>
        <time>2014-03-07T09:05:19Z</time>
      </trkpt>
      <trkpt lat="43.527086" lon="1.549413">
        <ele>214.9</ele>
        <time>2014-03-07T09:05:27Z</time>
      </trkpt>
      <trkpt lat="43.527026" lon="1.549506">
        <ele>215.3</ele>
        <time>2014-03-07T09:05:35Z</time>
      </trkpt>
      <trkpt lat="43.526966" lon="1.549605">
        <ele>215.5</ele>
        <time>2014-03-07T09:05:43Z</time>
      </trkpt>
      <trkpt lat="43.526903" lon="1.549685">
        <ele>216.3</ele>
        <time>2014-03-07T09:05:51Z</time>
      </trkpt>
      <trkpt lat="43.526837" lon="1.549770">
        <ele>216.8</ele>
        <time>2014-03-07T09:05:59Z</time>
      </trkpt>
      <trkpt lat="43.526774" lon="1.549852">
        <ele>217.5</ele>
        <time>2014-03-07T09:06:07Z</time>
      </trkpt>
      <trkpt lat="43.526714" lon="1.549946">
        <ele>218.1</ele>
        <time>2014-03-07T09:06:15Z</time>
      </trkpt>
      <trkpt lat="43.526651" lon="1.550048">
        <ele>218.5</ele>
        <time>2014-03-07T09:06:24Z</time>
      </trkpt>
      <trkpt lat="43.526582" lon="1.550146">
        <ele>219.5</ele>
        <time>2014-03-07T09:06:34Z</time>
      </trkpt>
      <trkpt lat="43.526526" lon="1.550259">
        <ele>219.1</ele>
        <time>2014-03-07T09:06:44Z</time>
      </trkpt>
      <trkpt lat="43.526459" lon="1.550363">
        <ele>219.3</ele>
        <time>2014-03-07T09:06:54Z</time>
      </trkpt>
      <trkpt lat="43.526396" lon="1.550463">
        <ele>219.3</ele>
        <time>2014-03-07T09:07:04Z</time>
      </trkpt>
      <trkpt lat="43.526319" lon="1.550570">
        <ele>219.2</ele>
        <time>2014-03-07T09:07:16Z</time>
      </trkpt>
      <trkpt lat="43.526254" lon="1.550690">
        <ele>219.0</ele>
        <time>2014-03-07T09:07:27Z</time>
      </trkpt>
      <trkpt lat="43.526182" lon="1.550820">
        <ele>218.6</ele>
        <time>2014-03-07T09:07:38Z</time>
      </trkpt>
      <trkpt lat="43.526143" lon="1.550948">
        <ele>218.4</ele>
        <time>2014-03-07T09:07:48Z</time>
      </trkpt>
      <trkpt lat="43.526106" lon="1.551075">
        <ele>217.7</ele>
        <time>2014-03-07T09:07:59Z</time>
      </trkpt>
      <trkpt lat="43.526067" lon="1.551199">
        <ele>217.4</ele>
        <time>2014-03-07T09:08:11Z</time>
      </trkpt>
      <trkpt lat="43.526022" lon="1.551326">
        <ele>216.8</ele>
        <time>2014-03-07T09:08:22Z</time>
      </trkpt>
      <trkpt lat="43.526012" lon="1.551409">
        <ele>215.7</ele>
        <time>2014-03-07T09:10:08Z</time>
      </trkpt>
      <trkpt lat="43.525944" lon="1.551498">
        <ele>215.2</ele>
        <time>2014-03-07T09:10:19Z</time>
      </trkpt>
      <trkpt lat="43.525888" lon="1.551619">
        <ele>214.4</ele>
        <time>2014-03-07T09:10:29Z</time>
      </trkpt>
      <trkpt lat="43.525826" lon="1.551735">
        <ele>213.6</ele>
        <time>2014-03-07T09:10:40Z</time>
      </trkpt>
      <trkpt lat="43.525770" lon="1.551869">
        <ele>212.6</ele>
        <time>2014-03-07T09:10:51Z</time>
      </trkpt>
      <trkpt lat="43.525727" lon="1.551977">
        <ele>211.7</ele>
        <time>2014-03-07T09:11:02Z</time>
      </trkpt>
      <trkpt lat="43.525700" lon="1.552095">
        <ele>210.8</ele>
        <time>2014-03-07T09:11:15Z</time>
      </trkpt>
      <trkpt lat="43.525651" lon="1.552206">
        <ele>210.2</ele>
        <time>2014-03-07T09:11:26Z</time>
      </trkpt>
      <trkpt lat="43.525635" lon="1.552336">
        <ele>209.6</ele>
        <time>2014-03-07T09:11:38Z</time>
      </trkpt>
      <trkpt lat="43.525693" lon="1.552462">
        <ele>208.2</ele>
        <time>2014-03-07T09:11:51Z</time>
      </trkpt>
      <trkpt lat="43.525784" lon="1.552551">
        <ele>207.0</ele>
        <time>2014-03-07T09:12:04Z</time>
      </trkpt>
      <trkpt lat="43.525859" lon="1.552608">
        <ele>205.3</ele>
        <time>2014-03-07T09:12:39Z</time>
      </trkpt>
      <trkpt lat="43.525937" lon="1.552680">
        <ele>204.6</ele>
        <time>2014-03-07T09:12:50Z</time>
      </trkpt>
      <trkpt lat="43.526019" lon="1.552771">
        <ele>203.6</ele>
        <time>2014-03-07T09:13:01Z</time>
      </trkpt>
      <trkpt lat="43.526096" lon="1.552860">
        <ele>202.9</ele>
        <time>2014-03-07T09:13:11Z</time>
      </trkpt>
      <trkpt lat="43.526175" lon="1.552947">
        <ele>202.3</ele>
        <time>2014-03-07T09:13:21Z</time>
      </trkpt>
      <trkpt lat="43.526261" lon="1.553022">
        <ele>201.4</ele>
        <time>2014-03-07T09:13:32Z</time>
      </trkpt>
      <trkpt lat="43.526346" lon="1.553098">
        <ele>200.9</ele>
        <time>2014-03-07T09:13:43Z</time>
      </trkpt>
      <trkpt lat="43.526414" lon="1.553184">
        <ele>200.2</ele>
        <time>2014-03-07T09:13:55Z</time>
      </trkpt>
      <trkpt lat="43.526494" lon="1.553266">
        <ele>199.6</ele>
        <time>2014-03-07T09:14:05Z</time>
      </trkpt>
      <trkpt lat="43.526544" lon="1.553386">
        <ele>199.1</ele>
        <time>2014-03-07T09:14:15Z</time>
      </trkpt>
      <trkpt lat="43.526516" lon="1.553512">
        <ele>198.7</ele>
        <time>2014-03-07T09:14:26Z</time>
      </trkpt>
      <trkpt lat="43.526481" lon="1.553646">
        <ele>198.5</ele>
        <time>2014-03-07T09:14:36Z</time>
      </trkpt>
      <trkpt lat="43.526433" lon="1.553770">
        <ele>198.6</ele>
        <time>2014-03-07T09:14:46Z</time>
      </trkpt>
      <trkpt lat="43.526397" lon="1.553904">
        <ele>198.4</ele>
        <time>2014-03-07T09:14:56Z</time>
      </trkpt>
      <trkpt lat="43.526351" lon="1.554025">
        <ele>198.6</ele>
        <time>2014-03-07T09:15:06Z</time>
      </trkpt>
      <trkpt lat="43.526330" lon="1.554148">
        <ele>198.6</ele>
        <time>2014-03-07T09:15:15Z</time>
      </trkpt>
      <trkpt lat="43.526305" lon="1.554268">
        <ele>198.6</ele>
        <time>2014-03-07T09:15:26Z</time>
      </trkpt>
      <trkpt lat="43.526264" lon="1.554398">
        <ele>198.2</ele>
        <time>2014-03-07T09:15:36Z</time>
      </trkpt>
      <trkpt lat="43.526225" lon="1.554535">
        <ele>198.1</ele>
        <time>2014-03-07T09:15:46Z</time>
      </trkpt>
      <trkpt lat="43.526180" lon="1.554661">
        <ele>197.7</ele>
        <time>2014-03-07T09:15:56Z</time>
      </trkpt>
      <trkpt lat="43.526118" lon="1.554774">
        <ele>197.6</ele>
        <time>2014-03-07T09:16:06Z</time>
      </trkpt>
      <trkpt lat="43.526069" lon="1.554893">
        <ele>197.5</ele>
        <time>2014-03-07T09:16:16Z</time>
      </trkpt>
      <trkpt lat="43.526033" lon="1.555006">
        <ele>197.3</ele>
        <time>2014-03-07T09:16:26Z</time>
      </trkpt>
      <trkpt lat="43.525981" lon="1.555106">
        <ele>197.1</ele>
        <time>2014-03-07T09:16:37Z</time>
      </trkpt>
      <trkpt lat="43.525926" lon="1.555221">
        <ele>196.8</ele>
        <time>2014-03-07T09:16:48Z</time>
      </trkpt>
      <trkpt lat="43.525881" lon="1.555342">
        <ele>196.6</ele>
        <time>2014-03-07T09:16:58Z</time>
      </trkpt>
      <trkpt lat="43.525836" lon="1.555483">
        <ele>196.0</ele>
        <time>2014-03-07T09:17:09Z</time>
      </trkpt>
      <trkpt lat="43.525800" lon="1.555620">
        <ele>195.7</ele>
        <time>2014-03-07T09:17:20Z</time>
      </trkpt>
      <trkpt lat="43.525784" lon="1.555747">
        <ele>195.3</ele>
        <time>2014-03-07T09:17:31Z</time>
      </trkpt>
      <trkpt lat="43.525760" lon="1.555882">
        <ele>195.2</ele>
        <time>2014-03-07T09:17:43Z</time>
      </trkpt>
      <trkpt lat="43.525735" lon="1.556015">
        <ele>195.3</ele>
        <time>2014-03-07T09:17:53Z</time>
      </trkpt>
      <trkpt lat="43.525709" lon="1.556162">
        <ele>195.3</ele>
        <time>2014-03-07T09:18:03Z</time>
      </trkpt>
      <trkpt lat="43.525741" lon="1.556288">
        <ele>195.2</ele>
        <time>2014-03-07T09:18:13Z</time>
      </trkpt>
      <trkpt lat="43.525788" lon="1.556395">
        <ele>194.9</ele>
        <time>2014-03-07T09:18:23Z</time>
      </trkpt>
      <trkpt lat="43.525839" lon="1.556539">
        <ele>194.9</ele>
        <time>2014-03-07T09:18:34Z</time>
      </trkpt>
      <trkpt lat="43.525912" lon="1.556665">
        <ele>194.9</ele>
        <time>2014-03-07T09:18:45Z</time>
      </trkpt>
      <trkpt lat="43.525984" lon="1.556765">
        <ele>195.1</ele>
        <time>2014-03-07T09:18:55Z</time>
      </trkpt>
      <trkpt lat="43.526069" lon="1.556861">
        <ele>195.2</ele>
        <time>2014-03-07T09:19:07Z</time>
      </trkpt>
      <trkpt lat="43.526150" lon="1.556950">
        <ele>195.3</ele>
        <time>2014-03-07T09:19:18Z</time>
      </trkpt>
      <trkpt lat="43.526237" lon="1.557045">
        <ele>195.4</ele>
        <time>2014-03-07T09:19:29Z</time>
      </trkpt>
      <trkpt lat="43.526299" lon="1.557144">
        <ele>195.4</ele>
        <time>2014-03-07T09:19:40Z</time>
      </trkpt>
      <trkpt lat="43.526358" lon="1.557242">
        <ele>195.2</ele>
        <time>2014-03-07T09:19:50Z</time>
      </trkpt>
      <trkpt lat="43.526418" lon="1.557345">
        <ele>195.0</ele>
        <time>2014-03-07T09:20:00Z</time>
      </trkpt>
      <trkpt lat="43.526482" lon="1.557449">
        <ele>194.9</ele>
        <time>2014-03-07T09:20:10Z</time>
      </trkpt>
      <trkpt lat="43.526547" lon="1.557546">
        <ele>195.0</ele>
        <time>2014-03-07T09:20:21Z</time>
      </trkpt>
      <trkpt lat="43.526603" lon="1.557647">
        <ele>194.9</ele>
        <time>2014-03-07T09:20:31Z</time>
      </trkpt>
      <trkpt lat="43.526664" lon="1.557740">
        <ele>195.0</ele>
        <time>2014-03-07T09:20:41Z</time>
      </trkpt>
      <trkpt lat="43.526713" lon="1.557848">
        <ele>195.1</ele>
        <time>2014-03-07T09:20:51Z</time>
      </trkpt>
      <trkpt lat="43.526768" lon="1.557966">
        <ele>195.3</ele>
        <time>2014-03-07T09:21:03Z</time>
      </trkpt>
      <trkpt lat="43.526821" lon="1.558079">
        <ele>195.7</ele>
        <time>2014-03-07T09:21:15Z</time>
      </trkpt>
      <trkpt lat="43.526887" lon="1.558192">
        <ele>196.1</ele>
        <time>2014-03-07T09:21:27Z</time>
      </trkpt>
      <trkpt lat="43.526943" lon="1.558320">
        <ele>196.4</ele>
        <time>2014-03-07T09:21:38Z</time>
      </trkpt>
      <trkpt lat="43.526995" lon="1.558451">
        <ele>196.8</ele>
        <time>2014-03-07T09:21:48Z</time>
      </trkpt>
      <trkpt lat="43.527071" lon="1.558573">
        <ele>197.1</ele>
        <time>2014-03-07T09:21:59Z</time>
      </trkpt>
      <trkpt lat="43.527140" lon="1.558680">
        <ele>197.3</ele>
        <time>2014-03-07T09:22:09Z</time>
      </trkpt>
      <trkpt lat="43.527181" lon="1.558803">
        <ele>197.9</ele>
        <time>2014-03-07T09:22:21Z</time>
      </trkpt>
      <trkpt lat="43.527216" lon="1.558881">
        <ele>197.9</ele>
        <time>2014-03-07T09:23:55Z</time>
      </trkpt>
      <trkpt lat="43.527205" lon="1.558902">
        <ele>198.1</ele>
        <time>2014-03-07T09:25:52Z</time>
        <name>Chemin du Pech</name>
      </trkpt>
      <trkpt lat="43.527134" lon="1.558994">
        <ele>198.5</ele>
        <time>2014-03-07T09:26:02Z</time>
      </trkpt>
      <trkpt lat="43.527074" lon="1.559110">
        <ele>198.8</ele>
        <time>2014-03-07T09:26:12Z</time>
      </trkpt>
      <trkpt lat="43.527019" lon="1.559230">
        <ele>199.4</ele>
        <time>2014-03-07T09:26:22Z</time>
      </trkpt>
      <trkpt lat="43.526958" lon="1.559341">
        <ele>200.5</ele>
        <time>2014-03-07T09:26:31Z</time>
      </trkpt>
      <trkpt lat="43.526900" lon="1.559458">
        <ele>201.2</ele>
        <time>2014-03-07T09:26:40Z</time>
      </trkpt>
      <trkpt lat="43.526822" lon="1.559559">
        <ele>201.6</ele>
        <time>2014-03-07T09:26:49Z</time>
      </trkpt>
      <trkpt lat="43.526718" lon="1.559657">
        <ele>201.9</ele>
        <time>2014-03-07T09:26:58Z</time>
      </trkpt>
      <trkpt lat="43.526651" lon="1.559729">
        <ele>202.3</ele>
        <time>2014-03-07T09:27:06Z</time>
      </trkpt>
      <trkpt lat="43.526588" lon="1.559814">
        <ele>202.7</ele>
        <time>2014-03-07T09:27:15Z</time>
      </trkpt>
      <trkpt lat="43.526525" lon="1.559910">
        <ele>203.1</ele>
        <time>2014-03-07T09:27:24Z</time>
      </trkpt>
      <trkpt lat="43.526457" lon="1.560013">
        <ele>203.2</ele>
        <time>2014-03-07T09:27:33Z</time>
      </trkpt>
      <trkpt lat="43.526394" lon="1.560104">
        <ele>203.4</ele>
        <time>2014-03-07T09:27:42Z</time>
      </trkpt>
      <trkpt lat="43.526326" lon="1.560197">
        <ele>203.5</ele>
        <time>2014-03-07T09:27:51Z</time>
      </trkpt>
      <trkpt lat="43.526260" lon="1.560304">
        <ele>203.4</ele>
        <time>2014-03-07T09:28:00Z</time>
      </trkpt>
      <trkpt lat="43.526213" lon="1.560412">
        <ele>203.4</ele>
        <time>2014-03-07T09:28:09Z</time>
      </trkpt>
      <trkpt lat="43.526166" lon="1.560530">
        <ele>203.5</ele>
        <time>2014-03-07T09:28:19Z</time>
      </trkpt>
      <trkpt lat="43.526123" lon="1.560645">
        <ele>203.4</ele>
        <time>2014-03-07T09:28:28Z</time>
      </trkpt>
      <trkpt lat="43.526079" lon="1.560768">
        <ele>203.4</ele>
        <time>2014-03-07T09:28:38Z</time>
      </trkpt>
      <trkpt lat="43.526038" lon="1.560892">
        <ele>203.3</ele>
        <time>2014-03-07T09:28:47Z</time>
      </trkpt>
      <trkpt lat="43.525986" lon="1.561007">
        <ele>203.2</ele>
        <time>2014-03-07T09:28:55Z</time>
      </trkpt>
      <trkpt lat="43.525955" lon="1.561139">
        <ele>203.0</ele>
        <time>2014-03-07T09:29:04Z</time>
      </trkpt>
      <trkpt lat="43.525900" lon="1.561244">
        <ele>202.7</ele>
        <time>2014-03-07T09:29:13Z</time>
      </trkpt>
      <trkpt lat="43.525853" lon="1.561357">
        <ele>202.8</ele>
        <time>2014-03-07T09:29:22Z</time>
      </trkpt>
      <trkpt lat="43.525803" lon="1.561471">
        <ele>202.6</ele>
        <time>2014-03-07T09:29:31Z</time>
      </trkpt>
      <trkpt lat="43.525742" lon="1.561590">
        <ele>202.4</ele>
        <time>2014-03-07T09:29:40Z</time>
      </trkpt>
      <trkpt lat="43.525702" lon="1.561698">
        <ele>202.3</ele>
        <time>2014-03-07T09:29:49Z</time>
      </trkpt>
      <trkpt lat="43.525649" lon="1.561817">
        <ele>202.1</ele>
        <time>2014-03-07T09:29:59Z</time>
      </trkpt>
      <trkpt lat="43.525592" lon="1.561937">
        <ele>202.1</ele>
        <time>2014-03-07T09:30:09Z</time>
      </trkpt>
      <trkpt lat="43.525531" lon="1.562060">
        <ele>202.1</ele>
        <time>2014-03-07T09:30:19Z</time>
      </trkpt>
      <trkpt lat="43.525477" lon="1.562175">
        <ele>201.8</ele>
        <time>2014-03-07T09:30:29Z</time>
      </trkpt>
      <trkpt lat="43.525464" lon="1.562239">
        <ele>201.3</ele>
        <time>2014-03-07T09:31:37Z</time>
      </trkpt>
      <trkpt lat="43.525420" lon="1.562355">
        <ele>200.6</ele>
        <time>2014-03-07T09:31:47Z</time>
      </trkpt>
      <trkpt lat="43.525382" lon="1.562475">
        <ele>200.1</ele>
        <time>2014-03-07T09:31:57Z</time>
      </trkpt>
      <trkpt lat="43.525331" lon="1.562612">
        <ele>199.7</ele>
        <time>2014-03-07T09:32:07Z</time>
      </trkpt>
      <trkpt lat="43.525281" lon="1.562725">
        <ele>199.2</ele>
        <time>2014-03-07T09:32:17Z</time>
      </trkpt>
      <trkpt lat="43.525235" lon="1.562838">
        <ele>198.4</ele>
        <time>2014-03-07T09:32:27Z</time>
      </trkpt>
      <trkpt lat="43.525199" lon="1.562959">
        <ele>197.9</ele>
        <time>2014-03-07T09:32:38Z</time>
      </trkpt>
      <trkpt lat="43.525151" lon="1.563071">
        <ele>197.6</ele>
        <time>2014-03-07T09:32:49Z</time>
      </trkpt>
      <trkpt lat="43.525110" lon="1.563190">
        <ele>197.2</ele>
        <time>2014-03-07T09:33:01Z</time>
      </trkpt>
      <trkpt lat="43.525048" lon="1.563308">
        <ele>196.9</ele>
        <time>2014-03-07T09:33:12Z</time>
      </trkpt>
      <trkpt lat="43.525003" lon="1.563417">
        <ele>196.6</ele>
        <time>2014-03-07T09:33:22Z</time>
      </trkpt>
      <trkpt lat="43.524956" lon="1.563540">
        <ele>196.2</ele>
        <time>2014-03-07T09:33:33Z</time>
      </trkpt>
      <trkpt lat="43.524908" lon="1.563655">
        <ele>195.9</ele>
        <time>2014-03-07T09:33:42Z</time>
      </trkpt>
      <trkpt lat="43.524831" lon="1.563713">
        <ele>195.4</ele>
        <time>2014-03-07T09:33:53Z</time>
      </trkpt>
      <trkpt lat="43.524739" lon="1.563782">
        <ele>194.9</ele>
        <time>2014-03-07T09:34:04Z</time>
      </trkpt>
      <trkpt lat="43.524649" lon="1.563719">
        <ele>194.3</ele>
        <time>2014-03-07T09:34:15Z</time>
      </trkpt>
      <trkpt lat="43.524565" lon="1.563642">
        <ele>192.7</ele>
        <time>2014-03-07T09:34:36Z</time>
      </trkpt>
      <trkpt lat="43.524491" lon="1.563596">
        <ele>191.6</ele>
        <time>2014-03-07T09:35:09Z</time>
      </trkpt>
      <trkpt lat="43.524409" lon="1.563526">
        <ele>190.8</ele>
        <time>2014-03-07T09:35:23Z</time>
      </trkpt>
      <trkpt lat="43.524324" lon="1.563498">
        <ele>189.6</ele>
        <time>2014-03-07T09:35:38Z</time>
      </trkpt>
      <trkpt lat="43.524238" lon="1.563444">
        <ele>188.4</ele>
        <time>2014-03-07T09:35:55Z</time>
      </trkpt>
      <trkpt lat="43.524150" lon="1.563367">
        <ele>187.0</ele>
        <time>2014-03-07T09:36:28Z</time>
      </trkpt>
      <trkpt lat="43.524061" lon="1.563291">
        <ele>186.5</ele>
        <time>2014-03-07T09:36:43Z</time>
      </trkpt>
      <trkpt lat="43.524011" lon="1.563256">
        <ele>185.6</ele>
        <time>2014-03-07T09:37:13Z</time>
      </trkpt>
      <trkpt lat="43.523919" lon="1.563196">
        <ele>185.0</ele>
        <time>2014-03-07T09:37:29Z</time>
      </trkpt>
      <trkpt lat="43.523822" lon="1.563123">
        <ele>184.4</ele>
        <time>2014-03-07T09:37:48Z</time>
      </trkpt>
      <trkpt lat="43.523725" lon="1.563038">
        <ele>183.6</ele>
        <time>2014-03-07T09:38:04Z</time>
      </trkpt>
      <trkpt lat="43.523630" lon="1.562956">
        <ele>183.4</ele>
        <time>2014-03-07T09:38:16Z</time>
      </trkpt>
      <trkpt lat="43.523552" lon="1.562904">
        <ele>182.7</ele>
        <time>2014-03-07T09:38:27Z</time>
      </trkpt>
      <trkpt lat="43.523463" lon="1.562820">
        <ele>182.3</ele>
        <time>2014-03-07T09:38:37Z</time>
      </trkpt>
      <trkpt lat="43.523367" lon="1.562737">
        <ele>182.1</ele>
        <time>2014-03-07T09:38:47Z</time>
      </trkpt>
      <trkpt lat="43.523293" lon="1.562673">
        <ele>181.4</ele>
        <time>2014-03-07T09:38:57Z</time>
      </trkpt>
      <trkpt lat="43.523199" lon="1.562620">
        <ele>180.9</ele>
        <time>2014-03-07T09:39:09Z</time>
      </trkpt>
      <trkpt lat="43.523106" lon="1.562552">
        <ele>180.5</ele>
        <time>2014-03-07T09:39:19Z</time>
      </trkpt>
      <trkpt lat="43.523004" lon="1.562492">
        <ele>180.1</ele>
        <time>2014-03-07T09:39:29Z</time>
      </trkpt>
      <trkpt lat="43.522919" lon="1.562441">
        <ele>180.0</ele>
        <time>2014-03-07T09:39:39Z</time>
      </trkpt>
      <trkpt lat="43.522842" lon="1.562362">
        <ele>179.2</ele>
        <time>2014-03-07T09:39:50Z</time>
      </trkpt>
      <trkpt lat="43.522750" lon="1.562293">
        <ele>178.6</ele>
        <time>2014-03-07T09:40:01Z</time>
      </trkpt>
      <trkpt lat="43.522671" lon="1.562204">
        <ele>178.3</ele>
        <time>2014-03-07T09:40:10Z</time>
      </trkpt>
      <trkpt lat="43.522585" lon="1.562153">
        <ele>178.4</ele>
        <time>2014-03-07T09:40:20Z</time>
      </trkpt>
      <trkpt lat="43.522500" lon="1.562092">
        <ele>178.0</ele>
        <time>2014-03-07T09:40:32Z</time>
      </trkpt>
      <trkpt lat="43.522420" lon="1.562064">
        <ele>178.0</ele>
        <time>2014-03-07T09:40:43Z</time>
      </trkpt>
      <trkpt lat="43.522383" lon="1.561988">
        <ele>178.0</ele>
        <time>2014-03-07T09:40:55Z</time>
      </trkpt>
      <trkpt lat="43.522283" lon="1.561909">
        <ele>177.4</ele>
        <time>2014-03-07T09:41:07Z</time>
      </trkpt>
      <trkpt lat="43.522176" lon="1.561813">
        <ele>176.5</ele>
        <time>2014-03-07T09:41:18Z</time>
      </trkpt>
      <trkpt lat="43.522101" lon="1.561744">
        <ele>175.4</ele>
        <time>2014-03-07T09:41:29Z</time>
      </trkpt>
      <trkpt lat="43.522014" lon="1.561689">
        <ele>174.5</ele>
        <time>2014-03-07T09:41:40Z</time>
      </trkpt>
      <trkpt lat="43.521892" lon="1.561644">
        <ele>173.4</ele>
        <time>2014-03-07T09:41:52Z</time>
      </trkpt>
      <trkpt lat="43.521792" lon="1.561648">
        <ele>172.3</ele>
        <time>2014-03-07T09:42:03Z</time>
      </trkpt>
      <trkpt lat="43.521689" lon="1.561679">
        <ele>171.0</ele>
        <time>2014-03-07T09:42:14Z</time>
      </trkpt>
      <trkpt lat="43.521599" lon="1.561706">
        <ele>169.7</ele>
        <time>2014-03-07T09:42:26Z</time>
      </trkpt>
      <trkpt lat="43.521509" lon="1.561743">
        <ele>168.2</ele>
        <time>2014-03-07T09:42:37Z</time>
      </trkpt>
      <trkpt lat="43.521409" lon="1.561778">
        <ele>166.9</ele>
        <time>2014-03-07T09:42:48Z</time>
      </trkpt>
      <trkpt lat="43.521325" lon="1.561820">
        <ele>165.6</ele>
        <time>2014-03-07T09:43:00Z</time>
      </trkpt>
      <trkpt lat="43.521235" lon="1.561874">
        <ele>164.3</ele>
        <time>2014-03-07T09:43:13Z</time>
      </trkpt>
      <trkpt lat="43.521145" lon="1.561921">
        <ele>163.3</ele>
        <time>2014-03-07T09:43:24Z</time>
      </trkpt>
      <trkpt lat="43.521051" lon="1.561997">
        <ele>162.1</ele>
        <time>2014-03-07T09:43:37Z</time>
      </trkpt>
      <trkpt lat="43.520960" lon="1.562055">
        <ele>161.4</ele>
        <time>2014-03-07T09:43:49Z</time>
      </trkpt>
      <trkpt lat="43.520869" lon="1.562124">
        <ele>161.0</ele>
        <time>2014-03-07T09:44:01Z</time>
      </trkpt>
      <trkpt lat="43.520772" lon="1.562185">
        <ele>161.0</ele>
        <time>2014-03-07T09:44:12Z</time>
      </trkpt>
      <trkpt lat="43.520685" lon="1.562262">
        <ele>160.8</ele>
        <time>2014-03-07T09:44:23Z</time>
      </trkpt>
      <trkpt lat="43.520592" lon="1.562342">
        <ele>160.8</ele>
        <time>2014-03-07T09:44:34Z</time>
      </trkpt>
      <trkpt lat="43.520519" lon="1.562436">
        <ele>160.9</ele>
        <time>2014-03-07T09:44:46Z</time>
      </trkpt>
      <trkpt lat="43.520438" lon="1.562521">
        <ele>160.8</ele>
        <time>2014-03-07T09:44:55Z</time>
        <name>La Bourdette</name>
      </trkpt>
      <trkpt lat="43.520330" lon="1.562539">
        <ele>161.0</ele>
        <time>2014-03-07T09:45:10Z</time>
      </trkpt>
      <trkpt lat="43.520248" lon="1.562491">
        <ele>161.5</ele>
        <time>2014-03-07T09:45:22Z</time>
      </trkpt>
      <trkpt lat="43.520137" lon="1.562466">
        <ele>161.9</ele>
        <time>2014-03-07T09:45:33Z</time>
      </trkpt>
      <trkpt lat="43.520043" lon="1.562458">
        <ele>162.2</ele>
        <time>2014-03-07T09:45:42Z</time>
      </trkpt>
      <trkpt lat="43.519949" lon="1.562449">
        <ele>162.7</ele>
        <time>2014-03-07T09:45:52Z</time>
      </trkpt>
      <trkpt lat="43.519850" lon="1.562444">
        <ele>163.4</ele>
        <time>2014-03-07T09:46:03Z</time>
      </trkpt>
      <trkpt lat="43.519748" lon="1.562419">
        <ele>164.1</ele>
        <time>2014-03-07T09:46:14Z</time>
      </trkpt>
      <trkpt lat="43.519648" lon="1.562382">
        <ele>164.6</ele>
        <time>2014-03-07T09:46:25Z</time>
      </trkpt>
      <trkpt lat="43.519541" lon="1.562341">
        <ele>165.0</ele>
        <time>2014-03-07T09:46:35Z</time>
      </trkpt>
      <trkpt lat="43.519450" lon="1.562296">
        <ele>165.6</ele>
        <time>2014-03-07T09:46:45Z</time>
      </trkpt>
      <trkpt lat="43.519354" lon="1.562235">
        <ele>166.3</ele>
        <time>2014-03-07T09:46:56Z</time>
      </trkpt>
      <trkpt lat="43.519256" lon="1.562206">
        <ele>166.8</ele>
        <time>2014-03-07T09:47:06Z</time>
      </trkpt>
      <trkpt lat="43.519159" lon="1.562157">
        <ele>167.4</ele>
        <time>2014-03-07T09:47:17Z</time>
      </trkpt>
      <trkpt lat="43.519053" lon="1.562104">
        <ele>168.5</ele>
        <time>2014-03-07T09:47:30Z</time>
      </trkpt>
      <trkpt lat="43.518924" lon="1.562119">
        <ele>169.8</ele>
        <time>2014-03-07T09:47:44Z</time>
      </trkpt>
      <trkpt lat="43.518806" lon="1.562093">
        <ele>170.8</ele>
        <time>2014-03-07T09:47:55Z</time>
      </trkpt>
      <trkpt lat="43.518707" lon="1.562079">
        <ele>172.0</ele>
        <time>2014-03-07T09:48:07Z</time>
      </trkpt>
      <trkpt lat="43.518591" lon="1.562082">
        <ele>173.1</ele>
        <time>2014-03-07T09:48:19Z</time>
      </trkpt>
      <trkpt lat="43.518515" lon="1.562087">
        <ele>173.7</ele>
        <time>2014-03-07T09:48:56Z</time>
      </trkpt>
      <trkpt lat="43.518522" lon="1.562039">
        <ele>173.9</ele>
        <time>2014-03-07T09:49:53Z</time>
      </trkpt>
      <trkpt lat="43.518557" lon="1.561911">
        <ele>173.8</ele>
        <time>2014-03-07T09:50:01Z</time>
      </trkpt>
      <trkpt lat="43.518615" lon="1.561798">
        <ele>174.1</ele>
        <time>2014-03-07T09:50:12Z</time>
      </trkpt>
      <trkpt lat="43.518652" lon="1.561667">
        <ele>174.5</ele>
        <time>2014-03-07T09:50:21Z</time>
      </trkpt>
      <trkpt lat="43.518669" lon="1.561536">
        <ele>174.8</ele>
        <time>2014-03-07T09:50:31Z</time>
      </trkpt>
      <trkpt lat="43.518724" lon="1.561403">
        <ele>174.8</ele>
        <time>2014-03-07T09:50:40Z</time>
      </trkpt>
      <trkpt lat="43.518758" lon="1.561283">
        <ele>174.3</ele>
        <time>2014-03-07T09:50:52Z</time>
      </trkpt>
      <trkpt lat="43.518823" lon="1.561191">
        <ele>173.5</ele>
        <time>2014-03-07T09:51:11Z</time>
      </trkpt>
      <trkpt lat="43.518832" lon="1.561042">
        <ele>172.7</ele>
        <time>2014-03-07T09:51:21Z</time>
      </trkpt>
      <trkpt lat="43.518786" lon="1.560925">
        <ele>172.1</ele>
        <time>2014-03-07T09:51:29Z</time>
      </trkpt>
      <trkpt lat="43.518738" lon="1.560815">
        <ele>171.3</ele>
        <time>2014-03-07T09:51:38Z</time>
      </trkpt>
      <trkpt lat="43.518665" lon="1.560707">
        <ele>170.5</ele>
        <time>2014-03-07T09:51:49Z</time>
      </trkpt>
      <trkpt lat="43.518585" lon="1.560608">
        <ele>169.7</ele>
        <time>2014-03-07T09:51:59Z</time>
      </trkpt>
      <trkpt lat="43.518506" lon="1.560514">
        <ele>168.6</ele>
        <time>2014-03-07T09:52:24Z</time>
      </trkpt>
      <trkpt lat="43.518401" lon="1.560434">
        <ele>168.2</ele>
        <time>2014-03-07T09:52:36Z</time>
      </trkpt>
      <trkpt lat="43.518286" lon="1.560406">
        <ele>167.7</ele>
        <time>2014-03-07T09:52:48Z</time>
      </trkpt>
      <trkpt lat="43.518203" lon="1.560428">
        <ele>167.3</ele>
        <time>2014-03-07T09:53:00Z</time>
      </trkpt>
      <trkpt lat="43.518177" lon="1.560333">
        <ele>167.1</ele>
        <time>2014-03-07T09:53:38Z</time>
      </trkpt>
      <trkpt lat="43.518149" lon="1.560211">
        <ele>166.6</ele>
        <time>2014-03-07T09:53:47Z</time>
      </trkpt>
      <trkpt lat="43.518165" lon="1.560098">
        <ele>166.1</ele>
        <time>2014-03-07T09:53:57Z</time>
      </trkpt>
      <trkpt lat="43.518187" lon="1.559976">
        <ele>165.7</ele>
        <time>2014-03-07T09:54:07Z</time>
      </trkpt>
      <trkpt lat="43.518160" lon="1.559837">
        <ele>165.2</ele>
        <time>2014-03-07T09:54:20Z</time>
      </trkpt>
      <trkpt lat="43.518195" lon="1.559705">
        <ele>165.2</ele>
        <time>2014-03-07T09:54:33Z</time>
      </trkpt>
      <trkpt lat="43.518217" lon="1.559572">
        <ele>164.9</ele>
        <time>2014-03-07T09:54:46Z</time>
      </trkpt>
      <trkpt lat="43.518214" lon="1.559618">
        <ele>164.9</ele>
        <time>2014-03-07T09:56:00Z</time>
      </trkpt>
      <trkpt lat="43.518209" lon="1.559474">
        <ele>164.9</ele>
        <time>2014-03-07T09:56:12Z</time>
      </trkpt>
      <trkpt lat="43.518208" lon="1.559309">
        <ele>164.4</ele>
        <time>2014-03-07T09:56:23Z</time>
      </trkpt>
      <trkpt lat="43.518181" lon="1.559216">
        <ele>164.4</ele>
        <time>2014-03-07T09:57:03Z</time>
      </trkpt>
      <trkpt lat="43.518182" lon="1.559224">
        <ele>164.7</ele>
        <time>2014-03-07T09:57:59Z</time>
      </trkpt>
    </trkseg>
  </trk>
</gpx>

